sensor_id;sensor_type;location;lat;lon;timestamp;temperature;humidity
24091;DHT22;12272;52.426;17.100;2022-08-05T00:03:13;24.30;99.90
24091;DHT22;12272;52.426;17.100;2022-08-05T00:08:16;24.30;99.90
24091;DHT22;12272;52.426;17.100;2022-08-05T00:13:37;24.30;99.90
24091;DHT22;12272;52.426;17.100;2022-08-05T00:18:46;24.30;99.90
24091;DHT22;12272;52.426;17.100;2022-08-05T00:23:49;24.30;99.90
24091;DHT22;12272;52.426;17.100;2022-08-05T00:29:11;24.20;99.90
24091;DHT22;12272;52.426;17.100;2022-08-05T00:34:13;24.20;99.90
24091;DHT22;12272;52.426;17.100;2022-08-05T00:39:36;24.30;99.90
24091;DHT22;12272;52.426;17.100;2022-08-05T00:44:45;24.20;99.90
24091;DHT22;12272;52.426;17.100;2022-08-05T00:49:48;24.10;99.90
24091;DHT22;12272;52.426;17.100;2022-08-05T00:54:53;24.10;99.90
24091;DHT22;12272;52.426;17.100;2022-08-05T00:59:57;24.10;99.90
24091;DHT22;12272;52.426;17.100;2022-08-05T01:04:59;24.00;99.90
24091;DHT22;12272;52.426;17.100;2022-08-05T01:10:07;24.00;99.90
24091;DHT22;12272;52.426;17.100;2022-08-05T01:15:16;24.00;99.90
24091;DHT22;12272;52.426;17.100;2022-08-05T01:21:18;23.90;99.90
24091;DHT22;12272;52.426;17.100;2022-08-05T01:27:06;23.90;99.90
24091;DHT22;12272;52.426;17.100;2022-08-05T01:32:22;23.90;99.90
24091;DHT22;12272;52.426;17.100;2022-08-05T01:42:46;23.80;99.90
24091;DHT22;12272;52.426;17.100;2022-08-05T01:47:50;23.80;99.90
24091;DHT22;12272;52.426;17.100;2022-08-05T01:53:00;23.70;99.90
24091;DHT22;12272;52.426;17.100;2022-08-05T01:58:06;23.70;99.90
24091;DHT22;12272;52.426;17.100;2022-08-05T02:03:38;23.60;99.90
24091;DHT22;12272;52.426;17.100;2022-08-05T02:08:42;23.70;99.90
24091;DHT22;12272;52.426;17.100;2022-08-05T02:14:04;23.70;99.90
24091;DHT22;12272;52.426;17.100;2022-08-05T02:24:37;23.60;99.90
24091;DHT22;12272;52.426;17.100;2022-08-05T02:29:43;23.60;99.90
24091;DHT22;12272;52.426;17.100;2022-08-05T02:35:04;23.60;99.90
24091;DHT22;12272;52.426;17.100;2022-08-05T02:40:16;23.60;99.90
24091;DHT22;12272;52.426;17.100;2022-08-05T02:45:20;23.60;99.90
24091;DHT22;12272;52.426;17.100;2022-08-05T02:50:25;23.60;99.90
24091;DHT22;12272;52.426;17.100;2022-08-05T02:55:30;23.50;99.90
24091;DHT22;12272;52.426;17.100;2022-08-05T03:00:55;23.50;99.90
24091;DHT22;12272;52.426;17.100;2022-08-05T03:05:58;23.50;99.90
24091;DHT22;12272;52.426;17.100;2022-08-05T03:11:24;23.50;99.90
24091;DHT22;12272;52.426;17.100;2022-08-05T03:16:46;23.40;99.90
24091;DHT22;12272;52.426;17.100;2022-08-05T03:21:49;23.40;99.90
24091;DHT22;12272;52.426;17.100;2022-08-05T03:26:51;23.50;99.90
24091;DHT22;12272;52.426;17.100;2022-08-05T03:31:54;23.40;99.90
24091;DHT22;12272;52.426;17.100;2022-08-05T03:37:02;23.40;99.90
24091;DHT22;12272;52.426;17.100;2022-08-05T03:42:06;23.40;99.90
24091;DHT22;12272;52.426;17.100;2022-08-05T03:47:10;23.40;99.90
24091;DHT22;12272;52.426;17.100;2022-08-05T03:52:21;23.40;99.90
24091;DHT22;12272;52.426;17.100;2022-08-05T03:57:44;23.40;99.90
24091;DHT22;12272;52.426;17.100;2022-08-05T04:02:50;23.40;99.90
24091;DHT22;12272;52.426;17.100;2022-08-05T04:08:05;23.40;99.90
24091;DHT22;12272;52.426;17.100;2022-08-05T04:13:29;23.40;99.90
24091;DHT22;12272;52.426;17.100;2022-08-05T04:18:52;23.40;99.90
24091;DHT22;12272;52.426;17.100;2022-08-05T04:23:59;23.40;99.90
24091;DHT22;12272;52.426;17.100;2022-08-05T04:29:07;23.40;99.90
24091;DHT22;12272;52.426;17.100;2022-08-05T04:34:10;23.40;99.90
24091;DHT22;12272;52.426;17.100;2022-08-05T04:39:33;23.40;99.90
24091;DHT22;12272;52.426;17.100;2022-08-05T04:44:37;23.40;99.90
24091;DHT22;12272;52.426;17.100;2022-08-05T04:49:40;23.40;99.90
24091;DHT22;12272;52.426;17.100;2022-08-05T04:55:03;23.40;99.90
24091;DHT22;12272;52.426;17.100;2022-08-05T05:00:16;23.40;99.90
24091;DHT22;12272;52.426;17.100;2022-08-05T05:05:24;23.40;99.90
24091;DHT22;12272;52.426;17.100;2022-08-05T05:10:32;23.40;99.90
24091;DHT22;12272;52.426;17.100;2022-08-05T05:15:39;23.40;99.90
24091;DHT22;12272;52.426;17.100;2022-08-05T05:21:01;23.40;99.90
24091;DHT22;12272;52.426;17.100;2022-08-05T05:26:05;23.40;99.90
24091;DHT22;12272;52.426;17.100;2022-08-05T05:31:08;23.40;99.90
24091;DHT22;12272;52.426;17.100;2022-08-05T05:36:10;23.40;99.90
24091;DHT22;12272;52.426;17.100;2022-08-05T05:41:15;23.40;99.90
24091;DHT22;12272;52.426;17.100;2022-08-05T05:46:19;23.50;99.90
24091;DHT22;12272;52.426;17.100;2022-08-05T05:51:24;23.50;99.90
24091;DHT22;12272;52.426;17.100;2022-08-05T05:56:30;23.40;99.90
24091;DHT22;12272;52.426;17.100;2022-08-05T06:01:38;23.50;99.90
24091;DHT22;12272;52.426;17.100;2022-08-05T06:06:43;23.40;99.90
24091;DHT22;12272;52.426;17.100;2022-08-05T06:11:50;23.50;99.90
24091;DHT22;12272;52.426;17.100;2022-08-05T06:17:03;23.50;99.90
24091;DHT22;12272;52.426;17.100;2022-08-05T06:22:28;23.60;99.90
24091;DHT22;12272;52.426;17.100;2022-08-05T06:27:35;23.60;99.90
24091;DHT22;12272;52.426;17.100;2022-08-05T06:32:58;23.60;99.90
24091;DHT22;12272;52.426;17.100;2022-08-05T06:38:00;23.70;99.90
24091;DHT22;12272;52.426;17.100;2022-08-05T06:43:12;23.70;99.90
24091;DHT22;12272;52.426;17.100;2022-08-05T06:48:35;23.80;99.90
24091;DHT22;12272;52.426;17.100;2022-08-05T06:53:59;23.90;99.90
24091;DHT22;12272;52.426;17.100;2022-08-05T06:59:04;24.00;99.90
24091;DHT22;12272;52.426;17.100;2022-08-05T07:04:10;24.10;99.90
24091;DHT22;12272;52.426;17.100;2022-08-05T07:09:15;24.30;99.90
24091;DHT22;12272;52.426;17.100;2022-08-05T07:14:20;24.40;99.90
24091;DHT22;12272;52.426;17.100;2022-08-05T07:19:45;24.60;99.90
24091;DHT22;12272;52.426;17.100;2022-08-05T07:25:08;24.70;99.90
24091;DHT22;12272;52.426;17.100;2022-08-05T07:30:32;24.70;99.90
24091;DHT22;12272;52.426;17.100;2022-08-05T07:35:39;24.90;99.90
24091;DHT22;12272;52.426;17.100;2022-08-05T07:41:13;24.90;99.90
24091;DHT22;12272;52.426;17.100;2022-08-05T07:46:36;24.80;99.90
24091;DHT22;12272;52.426;17.100;2022-08-05T07:51:38;24.70;99.90
24091;DHT22;12272;52.426;17.100;2022-08-05T07:56:49;25.30;99.90
24091;DHT22;12272;52.426;17.100;2022-08-05T08:02:12;25.30;99.90
24091;DHT22;12272;52.426;17.100;2022-08-05T08:07:19;25.90;99.90
24091;DHT22;12272;52.426;17.100;2022-08-05T08:12:24;25.70;99.90
24091;DHT22;12272;52.426;17.100;2022-08-05T08:17:40;26.00;99.90
24091;DHT22;12272;52.426;17.100;2022-08-05T08:22:55;25.80;99.90
24091;DHT22;12272;52.426;17.100;2022-08-05T08:27:58;25.70;99.90
24091;DHT22;12272;52.426;17.100;2022-08-05T08:33:10;25.90;99.90
24091;DHT22;12272;52.426;17.100;2022-08-05T08:38:15;25.80;99.90
24091;DHT22;12272;52.426;17.100;2022-08-05T08:43:36;26.20;99.90
24091;DHT22;12272;52.426;17.100;2022-08-05T08:49:02;25.90;99.90
24091;DHT22;12272;52.426;17.100;2022-08-05T08:54:25;25.80;99.90
24091;DHT22;12272;52.426;17.100;2022-08-05T08:59:28;25.70;99.90
24091;DHT22;12272;52.426;17.100;2022-08-05T09:04:35;25.70;99.90
24091;DHT22;12272;52.426;17.100;2022-08-05T09:10:02;26.80;99.90
24091;DHT22;12272;52.426;17.100;2022-08-05T09:15:06;26.80;99.90
24091;DHT22;12272;52.426;17.100;2022-08-05T09:20:10;26.50;99.90
24091;DHT22;12272;52.426;17.100;2022-08-05T09:25:33;27.10;99.90
24091;DHT22;12272;52.426;17.100;2022-08-05T09:31:00;26.80;99.90
24091;DHT22;12272;52.426;17.100;2022-08-05T09:36:48;26.30;99.90
24091;DHT22;12272;52.426;17.100;2022-08-05T09:42:02;25.90;99.90
24091;DHT22;12272;52.426;17.100;2022-08-05T09:47:14;27.20;99.90
24091;DHT22;12272;52.426;17.100;2022-08-05T09:52:30;26.80;99.90
24091;DHT22;12272;52.426;17.100;2022-08-05T09:57:43;27.30;99.90
24091;DHT22;12272;52.426;17.100;2022-08-05T10:02:50;27.40;99.90
24091;DHT22;12272;52.426;17.100;2022-08-05T10:08:04;28.70;99.90
24091;DHT22;12272;52.426;17.100;2022-08-05T10:13:33;29.50;99.90
24091;DHT22;12272;52.426;17.100;2022-08-05T10:18:49;28.70;99.90
24091;DHT22;12272;52.426;17.100;2022-08-05T10:23:53;27.30;99.90
24091;DHT22;12272;52.426;17.100;2022-08-05T10:29:02;26.50;99.90
24091;DHT22;12272;52.426;17.100;2022-08-05T10:34:09;27.10;99.90
24091;DHT22;12272;52.426;17.100;2022-08-05T10:39:20;26.30;99.90
24091;DHT22;12272;52.426;17.100;2022-08-05T10:44:46;26.00;99.90
24091;DHT22;12272;52.426;17.100;2022-08-05T10:50:08;25.50;99.90
24091;DHT22;12272;52.426;17.100;2022-08-05T10:56:01;25.40;99.90
24091;DHT22;12272;52.426;17.100;2022-08-05T11:01:16;25.70;99.90
24091;DHT22;12272;52.426;17.100;2022-08-05T11:12:03;26.00;99.90
24091;DHT22;12272;52.426;17.100;2022-08-05T11:22:54;26.80;99.90
24091;DHT22;12272;52.426;17.100;2022-08-05T11:33:38;27.40;99.90
24091;DHT22;12272;52.426;17.100;2022-08-05T11:38:49;26.80;99.90
24091;DHT22;12272;52.426;17.100;2022-08-05T11:44:10;28.50;99.90
24091;DHT22;12272;52.426;17.100;2022-08-05T11:49:42;29.00;99.90
24091;DHT22;12272;52.426;17.100;2022-08-05T11:55:18;30.20;99.90
24091;DHT22;12272;52.426;17.100;2022-08-05T12:00:29;29.90;99.70
24091;DHT22;12272;52.426;17.100;2022-08-05T12:06:02;28.30;99.90
24091;DHT22;12272;52.426;17.100;2022-08-05T12:11:31;28.00;99.90
24091;DHT22;12272;52.426;17.100;2022-08-05T12:23:11;30.30;99.90
24091;DHT22;12272;52.426;17.100;2022-08-05T12:28:49;29.00;99.90
24091;DHT22;12272;52.426;17.100;2022-08-05T12:33:56;28.00;99.90
24091;DHT22;12272;52.426;17.100;2022-08-05T12:39:06;28.10;99.90
24091;DHT22;12272;52.426;17.100;2022-08-05T12:44:37;29.80;99.90
24091;DHT22;12272;52.426;17.100;2022-08-05T12:49:46;30.40;99.20
24091;DHT22;12272;52.426;17.100;2022-08-05T12:55:22;29.80;99.90
24091;DHT22;12272;52.426;17.100;2022-08-05T13:05:54;31.50;96.00
24091;DHT22;12272;52.426;17.100;2022-08-05T13:11:03;32.10;93.00
24091;DHT22;12272;52.426;17.100;2022-08-05T13:16:13;32.00;94.80
24091;DHT22;12272;52.426;17.100;2022-08-05T13:21:34;31.30;93.50
24091;DHT22;12272;52.426;17.100;2022-08-05T13:26:58;31.00;94.40
24091;DHT22;12272;52.426;17.100;2022-08-05T13:32:05;30.00;97.70
24091;DHT22;12272;52.426;17.100;2022-08-05T13:37:23;31.20;96.40
24091;DHT22;12272;52.426;17.100;2022-08-05T13:42:38;30.70;96.80
24091;DHT22;12272;52.426;17.100;2022-08-05T13:47:44;31.00;95.00
24091;DHT22;12272;52.426;17.100;2022-08-05T13:53:09;31.40;92.50
24091;DHT22;12272;52.426;17.100;2022-08-05T13:58:20;30.20;95.50
24091;DHT22;12272;52.426;17.100;2022-08-05T14:03:32;30.00;95.70
24091;DHT22;12272;52.426;17.100;2022-08-05T14:08:35;31.40;90.00
24091;DHT22;12272;52.426;17.100;2022-08-05T14:13:40;31.90;90.10
24091;DHT22;12272;52.426;17.100;2022-08-05T14:18:43;31.70;89.60
24091;DHT22;12272;52.426;17.100;2022-08-05T14:23:50;32.60;89.90
24091;DHT22;12272;52.426;17.100;2022-08-05T14:28:54;32.20;87.60
24091;DHT22;12272;52.426;17.100;2022-08-05T14:33:57;31.90;83.90
24091;DHT22;12272;52.426;17.100;2022-08-05T14:39:02;32.50;86.50
24091;DHT22;12272;52.426;17.100;2022-08-05T14:44:12;32.10;84.20
24091;DHT22;12272;52.426;17.100;2022-08-05T14:49:23;31.70;90.30
24091;DHT22;12272;52.426;17.100;2022-08-05T14:54:45;32.10;88.40
24091;DHT22;12272;52.426;17.100;2022-08-05T14:59:54;31.60;88.00
24091;DHT22;12272;52.426;17.100;2022-08-05T15:04:57;32.30;87.10
24091;DHT22;12272;52.426;17.100;2022-08-05T15:10:01;32.80;88.00
24091;DHT22;12272;52.426;17.100;2022-08-05T15:15:05;32.70;87.40
24091;DHT22;12272;52.426;17.100;2022-08-05T15:20:16;32.20;87.80
24091;DHT22;12272;52.426;17.100;2022-08-05T15:25:25;32.70;84.50
24091;DHT22;12272;52.426;17.100;2022-08-05T15:30:48;32.70;85.80
24091;DHT22;12272;52.426;17.100;2022-08-05T15:35:55;32.70;84.00
24091;DHT22;12272;52.426;17.100;2022-08-05T15:40:58;32.60;85.10
24091;DHT22;12272;52.426;17.100;2022-08-05T15:46:25;32.50;85.70
24091;DHT22;12272;52.426;17.100;2022-08-05T15:51:34;32.20;89.30
24091;DHT22;12272;52.426;17.100;2022-08-05T15:56:57;31.90;89.70
24091;DHT22;12272;52.426;17.100;2022-08-05T16:02:00;31.70;90.40
24091;DHT22;12272;52.426;17.100;2022-08-05T16:07:03;31.60;88.30
24091;DHT22;12272;52.426;17.100;2022-08-05T16:12:11;31.50;88.50
24091;DHT22;12272;52.426;17.100;2022-08-05T16:17:23;31.10;91.10
24091;DHT22;12272;52.426;17.100;2022-08-05T16:22:30;30.60;92.10
24091;DHT22;12272;52.426;17.100;2022-08-05T16:27:36;30.10;93.70
24091;DHT22;12272;52.426;17.100;2022-08-05T16:33:00;30.60;93.90
24091;DHT22;12272;52.426;17.100;2022-08-05T16:38:03;30.60;98.60
24091;DHT22;12272;52.426;17.100;2022-08-05T16:43:27;30.60;99.10
24091;DHT22;12272;52.426;17.100;2022-08-05T16:48:29;30.40;99.40
24091;DHT22;12272;52.426;17.100;2022-08-05T16:53:40;30.10;99.80
24091;DHT22;12272;52.426;17.100;2022-08-05T16:59:05;29.60;99.90
24091;DHT22;12272;52.426;17.100;2022-08-05T17:04:09;29.20;99.90
24091;DHT22;12272;52.426;17.100;2022-08-05T17:09:16;28.80;99.90
24091;DHT22;12272;52.426;17.100;2022-08-05T17:14:19;28.50;99.90
24091;DHT22;12272;52.426;17.100;2022-08-05T17:19:39;28.20;99.90
24091;DHT22;12272;52.426;17.100;2022-08-05T17:24:42;28.00;99.90
24091;DHT22;12272;52.426;17.100;2022-08-05T17:29:58;27.90;99.90
24091;DHT22;12272;52.426;17.100;2022-08-05T17:35:02;27.60;99.90
24091;DHT22;12272;52.426;17.100;2022-08-05T17:40:07;26.80;99.90
24091;DHT22;12272;52.426;17.100;2022-08-05T17:45:12;26.40;99.90
24091;DHT22;12272;52.426;17.100;2022-08-05T17:50:27;26.20;99.90
24091;DHT22;12272;52.426;17.100;2022-08-05T17:55:32;26.10;99.90
24091;DHT22;12272;52.426;17.100;2022-08-05T18:00:43;25.80;99.90
24091;DHT22;12272;52.426;17.100;2022-08-05T18:05:52;25.40;99.90
24091;DHT22;12272;52.426;17.100;2022-08-05T18:10:55;25.10;99.90
24091;DHT22;12272;52.426;17.100;2022-08-05T18:15:58;24.90;99.90
24091;DHT22;12272;52.426;17.100;2022-08-05T18:21:00;24.70;99.90
24091;DHT22;12272;52.426;17.100;2022-08-05T18:26:04;24.70;99.90
24091;DHT22;12272;52.426;17.100;2022-08-05T18:31:09;24.50;99.90
24091;DHT22;12272;52.426;17.100;2022-08-05T18:36:12;24.40;99.90
24091;DHT22;12272;52.426;17.100;2022-08-05T18:41:16;24.30;99.90
24091;DHT22;12272;52.426;17.100;2022-08-05T18:51:44;24.00;99.90
24091;DHT22;12272;52.426;17.100;2022-08-05T18:57:10;23.90;99.90
24091;DHT22;12272;52.426;17.100;2022-08-05T19:02:18;23.70;99.90
24091;DHT22;12272;52.426;17.100;2022-08-05T19:07:30;23.70;99.90
24091;DHT22;12272;52.426;17.100;2022-08-05T19:12:48;23.60;99.90
24091;DHT22;12272;52.426;17.100;2022-08-05T19:17:51;23.60;99.90
24091;DHT22;12272;52.426;17.100;2022-08-05T19:23:12;23.60;99.90
24091;DHT22;12272;52.426;17.100;2022-08-05T19:28:37;23.50;99.90
24091;DHT22;12272;52.426;17.100;2022-08-05T19:33:44;23.40;99.90
24091;DHT22;12272;52.426;17.100;2022-08-05T19:38:57;23.30;99.90
24091;DHT22;12272;52.426;17.100;2022-08-05T19:44:03;23.30;99.90
24091;DHT22;12272;52.426;17.100;2022-08-05T19:49:15;23.10;99.90
24091;DHT22;12272;52.426;17.100;2022-08-05T19:54:19;23.10;99.90
24091;DHT22;12272;52.426;17.100;2022-08-05T19:59:33;23.00;99.90
24091;DHT22;12272;52.426;17.100;2022-08-05T20:04:55;22.90;99.90
24091;DHT22;12272;52.426;17.100;2022-08-05T20:10:00;22.80;99.90
24091;DHT22;12272;52.426;17.100;2022-08-05T20:15:12;22.60;99.90
24091;DHT22;12272;52.426;17.100;2022-08-05T20:20:15;22.70;99.90
24091;DHT22;12272;52.426;17.100;2022-08-05T20:25:18;20.60;99.90
24091;DHT22;12272;52.426;17.100;2022-08-05T20:30:24;20.30;99.90
24091;DHT22;12272;52.426;17.100;2022-08-05T20:35:28;20.20;99.90
24091;DHT22;12272;52.426;17.100;2022-08-05T20:40:41;20.00;99.90
24091;DHT22;12272;52.426;17.100;2022-08-05T20:45:46;20.10;99.90
24091;DHT22;12272;52.426;17.100;2022-08-05T20:50:57;20.00;99.90
24091;DHT22;12272;52.426;17.100;2022-08-05T20:56:09;20.00;99.90
24091;DHT22;12272;52.426;17.100;2022-08-05T21:01:11;20.00;99.90
24091;DHT22;12272;52.426;17.100;2022-08-05T21:06:15;20.00;99.90
24091;DHT22;12272;52.426;17.100;2022-08-05T21:11:30;20.10;99.90
24091;DHT22;12272;52.426;17.100;2022-08-05T21:16:52;20.00;99.90
24091;DHT22;12272;52.426;17.100;2022-08-05T21:21:55;20.00;99.90
24091;DHT22;12272;52.426;17.100;2022-08-05T21:32:02;20.10;99.90
24091;DHT22;12272;52.426;17.100;2022-08-05T21:37:05;20.10;99.90
24091;DHT22;12272;52.426;17.100;2022-08-05T21:42:09;20.20;99.90
24091;DHT22;12272;52.426;17.100;2022-08-05T21:47:34;19.90;99.90
24091;DHT22;12272;52.426;17.100;2022-08-05T21:52:56;19.80;99.90
24091;DHT22;12272;52.426;17.100;2022-08-05T21:58:06;19.80;99.90
24091;DHT22;12272;52.426;17.100;2022-08-05T22:03:12;19.90;99.90
24091;DHT22;12272;52.426;17.100;2022-08-05T22:08:17;19.90;99.90
24091;DHT22;12272;52.426;17.100;2022-08-05T22:13:27;19.90;99.90
24091;DHT22;12272;52.426;17.100;2022-08-05T22:18:50;19.80;99.90
24091;DHT22;12272;52.426;17.100;2022-08-05T22:23:52;19.80;99.90
24091;DHT22;12272;52.426;17.100;2022-08-05T22:29:33;19.80;99.90
24091;DHT22;12272;52.426;17.100;2022-08-05T22:34:36;19.90;99.90
24091;DHT22;12272;52.426;17.100;2022-08-05T22:39:38;19.90;99.90
24091;DHT22;12272;52.426;17.100;2022-08-05T22:44:41;19.90;99.90
24091;DHT22;12272;52.426;17.100;2022-08-05T22:50:01;19.80;99.90
24091;DHT22;12272;52.426;17.100;2022-08-05T22:55:23;19.80;99.90
24091;DHT22;12272;52.426;17.100;2022-08-05T23:00:27;19.80;99.90
24091;DHT22;12272;52.426;17.100;2022-08-05T23:05:32;19.90;99.90
24091;DHT22;12272;52.426;17.100;2022-08-05T23:10:37;19.80;99.90
24091;DHT22;12272;52.426;17.100;2022-08-05T23:15:40;19.90;99.90
24091;DHT22;12272;52.426;17.100;2022-08-05T23:20:44;19.90;99.90
24091;DHT22;12272;52.426;17.100;2022-08-05T23:25:46;19.70;99.90
24091;DHT22;12272;52.426;17.100;2022-08-05T23:30:56;19.60;99.90
24091;DHT22;12272;52.426;17.100;2022-08-05T23:36:18;19.60;99.90
24091;DHT22;12272;52.426;17.100;2022-08-05T23:41:21;19.60;99.90
24091;DHT22;12272;52.426;17.100;2022-08-05T23:46:25;19.60;99.90
24091;DHT22;12272;52.426;17.100;2022-08-05T23:51:34;19.60;99.90
24091;DHT22;12272;52.426;17.100;2022-08-05T23:56:58;19.50;99.90
